Sloman Herakles — V2FY4 — position and weather

sailwx.info

Track history (hours):
 
Tides and Currents Weather Stations Pressure Air Temp Water Temp Dewpoint Dewpoint Depression Visibility Wind Speed Wind Dir Waves Ship Positions

Sloman Herakles

Last reported at 2017-Mar-21 11:13 UTC. Time now 2017-Mar-23 18:12 UTC.
Position N 39°19' W 009°57'.

Length 145 m; draft 9 m.

Type: Tanker. MMSI: 305851000.

Date/timePositionNaut miles runAvg speedWind from/ knotsBaromVisibWave heightAir tempDewpointWater temp
2017-Mar-21 11:13N 39°19' W 009°57'710.6
2017-Mar-21 10:34N 39°12' W 009°57'1110.5
2017-Mar-21 09:33N 39°02' W 009°57'1110.6
2017-Mar-21 08:33N 38°51' W 009°57'1110.7
2017-Mar-21 07:33N 38°40' W 009°56'1111.2
2017-Mar-21 06:33N 38°29' W 009°53'1111.0
2017-Mar-21 05:33N 38°19' W 009°50'244 9.7
2017-Mar-20 04:33N 35°58' W 005°40'1010.6
2017-Mar-20 03:33N 35°60' W 005°27'10 9.9
2017-Mar-20 02:33N 36°02' W 005°16'1211.5
2017-Mar-20 01:33N 36°04' W 005°01'4011.8
2017-Mar-19 22:12N 36°11' W 004°13'911.7
2017-Mar-19 21:27N 36°13' W 004°03'1111.8
2017-Mar-19 20:33N 36°14' W 003°50'  
2017-Mar-15 20:33N 36°03' W 004°58'4 4.3
2017-Mar-15 19:31N 36°02' W 005°03'5 4.8
2017-Mar-15 18:33N 36°02' W 005°09'6 6.0
2017-Mar-15 17:33N 36°01' W 005°16'7 6.6
2017-Mar-15 16:33N 35°58' W 005°24'8 7.5
2017-Mar-15 15:33N 35°56' W 005°33'9 7.6
2017-Mar-15 14:24N 35°54' W 005°43'246 8.8
2017-Mar-14 10:33N 38°14' W 009°58'1212.1
2017-Mar-14 09:33N 38°26' W 010°01'1212.3
2017-Mar-14 08:33N 38°38' W 010°05'1312.7
2017-Mar-14 07:33N 38°50' W 010°06'1413.9
2017-Mar-14 06:33N 39°04' W 010°06'1313.5
2017-Mar-14 05:33N 39°18' W 010°07'60611.9
2017-Mar-12 02:31N 48°54' W 005°47'7712.9
2017-Mar-11 20:32N 49°33' W 004°04'1312.7
2017-Mar-11 19:33N 49°39' W 003°48'1211.6
2017-Mar-11 18:32N 49°45' W 003°32'2311.0
2017-Mar-11 16:24N 49°58' W 003°01'1412.7
2017-Mar-11 15:17N 50°02' W 002°40'1114.5
2017-Mar-11 14:32N 50°05' W 002°24'1616.0
2017-Mar-11 13:33N 50°09' W 002°00'1716.6
2017-Mar-11 12:33N 50°13' W 001°35'1515.4
2017-Mar-11 11:33N 50°03' W 001°17'  
Track history (hours):
 
Tides and Currents Weather Stations Pressure Air Temp Water Temp Dewpoint Dewpoint Depression Visibility Wind Speed Wind Dir Waves Ship Positions

Sloman Herakles

Last reported at 2017-Mar-21 11:13 UTC. Time now 2017-Mar-23 18:12 UTC.
Position N 39°19' W 009°57'.

Length 145 m; draft 9 m.

Type: Tanker. MMSI: 305851000.

Date/timePositionNaut miles runAvg speedWind from/ knotsBaromVisibWave heightAir tempDewpointWater temp
2017-Mar-21 11:13N 39°19' W 009°57'710.6
2017-Mar-21 10:34N 39°12' W 009°57'1110.5
2017-Mar-21 09:33N 39°02' W 009°57'1110.6
2017-Mar-21 08:33N 38°51' W 009°57'1110.7
2017-Mar-21 07:33N 38°40' W 009°56'1111.2
2017-Mar-21 06:33N 38°29' W 009°53'1111.0
2017-Mar-21 05:33N 38°19' W 009°50'244 9.7
2017-Mar-20 04:33N 35°58' W 005°40'1010.6
2017-Mar-20 03:33N 35°60' W 005°27'10 9.9
2017-Mar-20 02:33N 36°02' W 005°16'1211.5
2017-Mar-20 01:33N 36°04' W 005°01'4011.8
2017-Mar-19 22:12N 36°11' W 004°13'911.7
2017-Mar-19 21:27N 36°13' W 004°03'1111.8
2017-Mar-19 20:33N 36°14' W 003°50'  
2017-Mar-15 20:33N 36°03' W 004°58'4 4.3
2017-Mar-15 19:31N 36°02' W 005°03'5 4.8
2017-Mar-15 18:33N 36°02' W 005°09'6 6.0
2017-Mar-15 17:33N 36°01' W 005°16'7 6.6
2017-Mar-15 16:33N 35°58' W 005°24'8 7.5
2017-Mar-15 15:33N 35°56' W 005°33'9 7.6
2017-Mar-15 14:24N 35°54' W 005°43'246 8.8
2017-Mar-14 10:33N 38°14' W 009°58'1212.1
2017-Mar-14 09:33N 38°26' W 010°01'1212.3
2017-Mar-14 08:33N 38°38' W 010°05'1312.7
2017-Mar-14 07:33N 38°50' W 010°06'1413.9
2017-Mar-14 06:33N 39°04' W 010°06'1313.5
2017-Mar-14 05:33N 39°18' W 010°07'60611.9
2017-Mar-12 02:31N 48°54' W 005°47'7712.9
2017-Mar-11 20:32N 49°33' W 004°04'1312.7
2017-Mar-11 19:33N 49°39' W 003°48'1211.6
2017-Mar-11 18:32N 49°45' W 003°32'2311.0
2017-Mar-11 16:24N 49°58' W 003°01'1412.7
2017-Mar-11 15:17N 50°02' W 002°40'1114.5
2017-Mar-11 14:32N 50°05' W 002°24'1616.0
2017-Mar-11 13:33N 50°09' W 002°00'1716.6
2017-Mar-11 12:33N 50°13' W 001°35'1515.4
2017-Mar-11 11:33N 50°03' W 001°17'  

Dump ship's entire track history